sim
Sign-in with your pilot id or email,
or register
Callsign
Passwort

Schedule Details

Flight Number: EWG82
Departure: Cologne Bonn Airport (EDDK) at 09:45
Arrival: Munich Airport (EDDM) at 10:55
Route: Eurowings Passenger Schedule. Enter filed route here before submitting Pirep.

Weather Information
Getting current METAR information for EDDK 221320Z VRB03KT CAVOK 26/08 Q1009 NOSIG
Getting current METAR information for EDDM 221320Z 05004KT 340V140 9999 FEW040 24/14 Q1012 NOSIG

Schedule Frequency

Route Map